Time;durP1;ratioP1;P1;durP2;ratioP2;P2;SDS_P1;SDS_P2;PMS_P1;PMS_P2;Temp;Humidity;BMP_temperature;BMP_pressure;BME280_temperature;BME280_humidity;BME280_pressure;Samples;Min_cycle;Max_cycle;Signal;HPM_P1;HPM_P2
2023/07/03 00:00:20;;;;;;;5.10;4.33;;;15.30;99.90;;;;;;5000372;28;20473;-60
2023/07/03 00:02:52;;;;;;;7.77;4.70;;;15.20;99.90;;;;;;4996883;28;20492;-60
2023/07/03 00:05:21;;;;;;;7.53;4.83;;;15.20;99.90;;;;;;4994898;28;20468;-59
2023/07/03 00:07:51;;;;;;;7.97;5.47;;;15.20;99.90;;;;;;4995118;28;20499;-58
2023/07/03 00:10:21;;;;;;;6.43;4.80;;;15.20;99.90;;;;;;4998718;28;20468;-60
2023/07/03 00:12:49;;;;;;;6.17;4.70;;;15.20;99.90;;;;;;4998295;28;20508;-59
2023/07/03 00:15:17;;;;;;;6.30;4.53;;;15.30;99.90;;;;;;4981558;28;21141;-58
2023/07/03 00:17:45;;;;;;;5.93;4.83;;;15.30;99.90;;;;;;5000230;28;20547;-59
2023/07/03 00:20:14;;;;;;;6.13;4.50;;;15.30;99.90;;;;;;4988901;28;20495;-58
2023/07/03 00:22:43;;;;;;;5.57;4.17;;;15.30;99.90;;;;;;4995307;28;20498;-59
2023/07/03 00:25:12;;;;;;;5.37;4.40;;;15.30;99.90;;;;;;4996810;28;20916;-59
2023/07/03 00:27:40;;;;;;;6.27;5.47;;;15.30;99.90;;;;;;4989117;28;20465;-58
2023/07/03 00:30:09;;;;;;;6.00;4.40;;;15.30;99.90;;;;;;4995007;28;20901;-59
2023/07/03 00:32:37;;;;;;;5.47;4.57;;;15.30;99.90;;;;;;4995087;28;20493;-59
2023/07/03 00:35:06;;;;;;;5.80;4.20;;;15.30;99.90;;;;;;4999741;28;20469;-58
2023/07/03 00:37:35;;;;;;;6.57;4.70;;;15.30;99.90;;;;;;4995869;28;21056;-58
2023/07/03 00:40:06;;;;;;;8.00;4.93;;;15.30;99.90;;;;;;4995540;28;20600;-59
2023/07/03 00:42:36;;;;;;;6.53;4.53;;;15.30;99.90;;;;;;4995712;28;20528;-58
2023/07/03 00:45:08;;;;;;;6.83;5.07;;;15.30;99.90;;;;;;4998855;28;20480;-60
2023/07/03 00:47:36;;;;;;;8.10;5.03;;;15.30;99.90;;;;;;4997497;28;20549;-58
2023/07/03 00:50:04;;;;;;;7.70;5.40;;;15.40;99.90;;;;;;4996642;28;20551;-59
2023/07/03 00:52:32;;;;;;;4.80;4.30;;;15.30;99.90;;;;;;4992968;28;20516;-59
2023/07/03 00:55:00;;;;;;;6.00;4.80;;;15.30;99.90;;;;;;4988566;28;20563;-60
2023/07/03 00:57:29;;;;;;;8.10;4.50;;;15.30;99.90;;;;;;4992038;28;20582;-58
2023/07/03 00:59:59;;;;;;;8.90;5.30;;;15.20;99.90;;;;;;4996369;28;20599;-58
2023/07/03 01:02:34;;;;;;;7.57;4.63;;;15.20;99.90;;;;;;4993288;28;20506;-58
2023/07/03 01:05:08;;;;;;;6.33;4.23;;;15.20;99.90;;;;;;4992261;28;20482;-58
2023/07/03 01:07:39;;;;;;;5.40;4.47;;;15.20;99.90;;;;;;4996485;28;20499;-59
2023/07/03 01:10:11;;;;;;;6.00;4.40;;;15.20;99.90;;;;;;4997122;28;20951;-59
2023/07/03 01:12:44;;;;;;;6.50;4.40;;;15.20;99.90;;;;;;4994526;28;20596;-58
2023/07/03 01:15:17;;;;;;;8.67;4.90;;;15.20;99.90;;;;;;4996718;28;20994;-60
2023/07/03 01:17:47;;;;;;;6.37;4.70;;;15.20;99.90;;;;;;4996832;28;20630;-58
2023/07/03 01:20:19;;;;;;;8.17;4.73;;;15.20;99.90;;;;;;4993074;28;20472;-59
2023/07/03 01:22:52;;;;;;;9.53;5.43;;;15.20;99.90;;;;;;4989403;28;20519;-59
2023/07/03 01:25:24;;;;;;;5.20;4.60;;;15.10;99.90;;;;;;4997594;28;20537;-59
2023/07/03 01:27:53;;;;;;;6.63;4.93;;;15.10;99.90;;;;;;4993776;28;20465;-59
2023/07/03 01:30:22;;;;;;;9.73;4.40;;;15.20;99.90;;;;;;4996448;28;20476;-59
2023/07/03 01:32:54;;;;;;;5.23;4.50;;;15.20;99.90;;;;;;4995652;28;20877;-61
2023/07/03 01:35:24;;;;;;;7.53;5.30;;;15.20;99.90;;;;;;4997937;28;20472;-60
2023/07/03 01:37:55;;;;;;;7.70;5.07;;;15.20;99.90;;;;;;4998070;28;20495;-60
2023/07/03 01:40:26;;;;;;;6.73;4.70;;;15.20;99.90;;;;;;4995920;28;21080;-61
2023/07/03 01:42:56;;;;;;;8.53;4.77;;;15.20;99.90;;;;;;4995385;28;20530;-59
2023/07/03 01:45:24;;;;;;;7.73;4.70;;;15.20;99.90;;;;;;4997228;28;21184;-59
2023/07/03 01:47:52;;;;;;;6.27;4.63;;;15.20;99.90;;;;;;4993825;28;20527;-59
2023/07/03 01:50:25;;;;;;;6.37;5.00;;;15.20;99.90;;;;;;4992994;28;20481;-59
2023/07/03 01:52:56;;;;;;;5.57;4.30;;;15.20;99.90;;;;;;4997718;28;21396;-58
2023/07/03 01:55:35;;;;;;;5.60;4.30;;;15.20;99.90;;;;;;4995171;28;20568;-58
2023/07/03 01:58:11;;;;;;;6.77;4.80;;;15.20;99.90;;;;;;4999516;28;20938;-58
2023/07/03 02:00:44;;;;;;;5.50;4.73;;;15.30;99.90;;;;;;4999100;28;20479;-58
2023/07/03 02:03:23;;;;;;;7.50;4.70;;;15.20;99.90;;;;;;4997407;28;20617;-58
2023/07/03 02:05:55;;;;;;;8.20;5.53;;;15.10;99.90;;;;;;4994450;28;20591;-59
2023/07/03 02:08:25;;;;;;;8.10;5.20;;;15.10;99.90;;;;;;4992039;28;20851;-60
2023/07/03 02:10:56;;;;;;;6.67;5.07;;;15.10;99.90;;;;;;4999104;28;20808;-59
2023/07/03 02:13:24;;;;;;;9.27;5.20;;;15.00;99.90;;;;;;4996953;28;20500;-59
2023/07/03 02:15:52;;;;;;;7.80;4.87;;;15.00;99.90;;;;;;4989723;28;20543;-58
2023/07/03 02:18:20;;;;;;;6.20;4.67;;;15.10;99.90;;;;;;4995374;28;20492;-59
2023/07/03 02:20:50;;;;;;;6.80;5.07;;;15.10;99.90;;;;;;4989074;28;20679;-58
2023/07/03 02:23:18;;;;;;;7.20;5.07;;;15.10;99.90;;;;;;4997533;28;20481;-60
2023/07/03 02:25:46;;;;;;;9.13;5.30;;;15.10;99.90;;;;;;4987636;28;20586;-58
2023/07/03 02:28:16;;;;;;;7.60;4.80;;;15.00;99.90;;;;;;4987108;28;20870;-59
2023/07/03 02:30:44;;;;;;;9.27;5.57;;;15.00;99.90;;;;;;4989138;28;20472;-59
2023/07/03 02:33:12;;;;;;;10.63;6.00;;;15.00;99.90;;;;;;4989990;28;20500;-59
2023/07/03 02:35:41;;;;;;;6.20;5.10;;;15.00;99.90;;;;;;4993649;28;20568;-59
2023/07/03 02:38:09;;;;;;;7.63;5.47;;;14.90;99.90;;;;;;4989511;28;20499;-58
2023/07/03 02:40:38;;;;;;;8.63;5.80;;;14.90;99.90;;;;;;4992574;28;20460;-59
2023/07/03 02:43:06;;;;;;;7.07;4.70;;;14.90;99.90;;;;;;4991067;28;20501;-59
2023/07/03 02:45:37;;;;;;;7.23;5.40;;;14.90;99.90;;;;;;4987394;28;21000;-59
2023/07/03 02:48:06;;;;;;;9.77;4.80;;;14.80;99.90;;;;;;4981072;28;20475;-58
2023/07/03 02:50:34;;;;;;;7.57;5.43;;;14.80;99.90;;;;;;4984022;28;20477;-59
2023/07/03 02:53:02;;;;;;;9.17;5.07;;;14.80;99.90;;;;;;4988910;28;20592;-59
2023/07/03 02:55:30;;;;;;;6.03;5.10;;;14.80;99.90;;;;;;4989592;28;20560;-60
2023/07/03 02:57:58;;;;;;;8.30;4.97;;;14.80;99.90;;;;;;4996244;28;20586;-59
2023/07/03 03:00:28;;;;;;;8.67;5.60;;;14.80;99.90;;;;;;4996615;28;20510;-58
2023/07/03 03:02:57;;;;;;;8.40;5.87;;;14.80;99.90;;;;;;4997770;28;20488;-59
2023/07/03 03:05:25;;;;;;;8.70;4.80;;;14.90;99.90;;;;;;4995343;28;20535;-59
2023/07/03 03:07:53;;;;;;;6.50;4.90;;;14.90;99.90;;;;;;4989910;28;21095;-58
2023/07/03 03:10:21;;;;;;;7.33;5.30;;;14.90;99.90;;;;;;4994984;28;20515;-57
2023/07/03 03:12:49;;;;;;;8.90;5.67;;;14.90;99.90;;;;;;4991674;28;20497;-58
2023/07/03 03:15:19;;;;;;;8.30;5.00;;;14.90;99.90;;;;;;4992129;28;20551;-58
2023/07/03 03:17:47;;;;;;;7.97;5.10;;;14.90;99.90;;;;;;4994591;28;20499;-58
2023/07/03 03:20:16;;;;;;;7.20;5.37;;;15.00;99.90;;;;;;4985579;28;20476;-59
2023/07/03 03:22:44;;;;;;;7.50;5.03;;;15.00;99.90;;;;;;4996090;28;20496;-58
2023/07/03 03:25:12;;;;;;;7.60;5.27;;;15.00;99.90;;;;;;4996588;28;20563;-59
2023/07/03 03:27:40;;;;;;;6.43;5.27;;;14.90;99.90;;;;;;4992545;28;20548;-57
2023/07/03 03:30:10;;;;;;;5.20;4.63;;;14.90;99.90;;;;;;4997047;28;20507;-59
2023/07/03 03:32:38;;;;;;;9.37;5.37;;;15.00;99.90;;;;;;4995499;28;20517;-58
2023/07/03 03:35:07;;;;;;;8.00;5.17;;;15.00;99.90;;;;;;4996331;28;20563;-58
2023/07/03 03:37:36;;;;;;;7.13;4.97;;;15.00;99.90;;;;;;4987383;28;20496;-59
2023/07/03 03:40:07;;;;;;;8.57;4.97;;;15.10;99.90;;;;;;4995787;28;20989;-58
2023/07/03 03:42:35;;;;;;;8.93;5.57;;;15.10;99.90;;;;;;4992004;28;21003;-59
2023/07/03 03:45:04;;;;;;;6.83;5.23;;;15.10;99.90;;;;;;4992346;28;20564;-59
2023/07/03 03:47:32;;;;;;;7.30;5.77;;;15.10;99.90;;;;;;4995885;28;20475;-59
2023/07/03 03:50:01;;;;;;;7.90;5.37;;;15.10;99.90;;;;;;4989441;28;20478;-58
2023/07/03 03:52:29;;;;;;;6.60;5.47;;;15.10;99.90;;;;;;4996706;28;20484;-58
2023/07/03 03:54:59;;;;;;;7.83;5.17;;;15.10;99.90;;;;;;4993328;28;20498;-59
2023/07/03 03:57:27;;;;;;;7.70;5.00;;;15.10;99.90;;;;;;4991791;28;21297;-58
2023/07/03 03:59:55;;;;;;;9.30;5.70;;;15.10;99.90;;;;;;4995746;28;20479;-58
2023/07/03 04:02:23;;;;;;;6.73;5.47;;;15.20;99.90;;;;;;4996886;28;20943;-58
2023/07/03 04:04:51;;;;;;;7.43;6.00;;;15.20;99.90;;;;;;4998078;28;20587;-59
2023/07/03 04:07:19;;;;;;;9.20;6.10;;;15.20;99.90;;;;;;4997247;28;20465;-59
2023/07/03 04:09:47;;;;;;;7.77;5.40;;;15.20;99.90;;;;;;4998679;28;21025;-59
2023/07/03 04:12:17;;;;;;;12.73;6.20;;;15.20;99.90;;;;;;4993065;28;20626;-59
2023/07/03 04:14:45;;;;;;;9.90;5.87;;;15.20;99.90;;;;;;4996275;28;21249;-59
2023/07/03 04:17:13;;;;;;;9.07;5.80;;;15.20;99.90;;;;;;4997072;28;20471;-59
2023/07/03 04:19:41;;;;;;;8.83;5.43;;;15.20;99.90;;;;;;4994736;28;20493;-59
2023/07/03 04:22:09;;;;;;;12.93;6.73;;;15.30;99.90;;;;;;4991994;28;20566;-61
2023/07/03 04:24:37;;;;;;;8.40;5.50;;;15.30;99.90;;;;;;4990725;28;20618;-58
2023/07/03 04:27:08;;;;;;;10.50;5.67;;;15.30;99.90;;;;;;5000434;28;20936;-58
2023/07/03 04:29:37;;;;;;;10.67;5.50;;;15.30;99.90;;;;;;5000377;28;20469;-58
2023/07/03 04:32:06;;;;;;;9.40;5.80;;;15.40;99.90;;;;;;4989396;28;20566;-59
2023/07/03 04:34:34;;;;;;;9.90;5.67;;;15.40;99.90;;;;;;4997605;28;20477;-58
2023/07/03 04:37:03;;;;;;;8.83;6.30;;;15.50;99.90;;;;;;4994607;28;20560;-59
2023/07/03 04:39:31;;;;;;;10.90;6.20;;;15.50;99.90;;;;;;4992567;28;20554;-59
2023/07/03 04:42:00;;;;;;;6.10;5.07;;;15.50;99.90;;;;;;4986983;28;20581;-59
2023/07/03 04:44:29;;;;;;;9.07;5.10;;;15.50;99.90;;;;;;4985548;28;20472;-59
2023/07/03 04:46:58;;;;;;;9.47;5.43;;;15.50;99.90;;;;;;4998290;28;20983;-59
2023/07/03 04:49:26;;;;;;;10.00;5.43;;;15.50;99.90;;;;;;4987475;28;21380;-60
2023/07/03 04:51:54;;;;;;;7.03;5.40;;;15.50;99.90;;;;;;4988675;28;20501;-58
2023/07/03 04:54:27;;;;;;;7.63;5.57;;;15.50;99.90;;;;;;4989729;28;20482;-59
2023/07/03 04:56:55;;;;;;;8.60;5.40;;;15.50;99.90;;;;;;4989762;28;20500;-61
2023/07/03 04:59:23;;;;;;;8.50;5.90;;;15.50;99.90;;;;;;4983015;28;20492;-58
2023/07/03 05:01:51;;;;;;;8.70;5.30;;;15.50;99.90;;;;;;4985055;28;20538;-57
2023/07/03 05:04:22;;;;;;;8.87;5.40;;;15.50;99.90;;;;;;4991270;28;20480;-60
2023/07/03 05:06:51;;;;;;;7.60;5.77;;;15.60;99.90;;;;;;4984449;28;20468;-59
2023/07/03 05:09:19;;;;;;;7.70;5.13;;;15.60;99.90;;;;;;4993489;28;20556;-61
2023/07/03 05:11:48;;;;;;;11.90;5.50;;;15.70;99.90;;;;;;4990635;28;20494;-60
2023/07/03 05:14:16;;;;;;;8.00;5.90;;;15.80;99.90;;;;;;4993690;28;20464;-57
2023/07/03 05:16:44;;;;;;;11.87;6.00;;;15.80;99.90;;;;;;4989844;28;20484;-61
2023/07/03 05:19:13;;;;;;;9.37;5.77;;;15.90;99.90;;;;;;4982064;28;20499;-60
2023/07/03 05:21:42;;;;;;;10.23;5.97;;;15.90;99.90;;;;;;4985788;28;20575;-60
2023/07/03 05:24:10;;;;;;;9.17;5.50;;;16.00;99.90;;;;;;4986687;28;20580;-59
2023/07/03 05:26:39;;;;;;;9.57;5.70;;;16.00;99.90;;;;;;4987826;28;20850;-58
2023/07/03 05:29:07;;;;;;;8.63;6.20;;;16.00;99.90;;;;;;4984387;28;20580;-59
2023/07/03 05:31:35;;;;;;;12.33;6.67;;;16.00;99.90;;;;;;4984042;28;20496;-59
2023/07/03 05:34:03;;;;;;;10.23;6.20;;;16.00;99.90;;;;;;4979630;28;20491;-60
2023/07/03 05:36:31;;;;;;;11.00;6.30;;;16.10;99.90;;;;;;4981318;28;20474;-59
2023/07/03 05:39:01;;;;;;;8.83;5.90;;;16.10;99.90;;;;;;4982570;28;20495;-58
2023/07/03 05:41:29;;;;;;;9.60;5.83;;;16.20;99.90;;;;;;4982631;28;20494;-58
2023/07/03 05:43:57;;;;;;;12.40;6.90;;;16.20;99.90;;;;;;4983172;28;20896;-59
2023/07/03 05:46:25;;;;;;;8.70;6.20;;;16.20;99.90;;;;;;4984097;28;20469;-60
2023/07/03 05:48:53;;;;;;;9.07;5.73;;;16.20;99.90;;;;;;4983443;28;20548;-58
2023/07/03 05:51:21;;;;;;;8.43;5.40;;;16.30;99.90;;;;;;4984976;28;20472;-59
2023/07/03 05:53:50;;;;;;;8.03;5.80;;;16.30;99.90;;;;;;4980271;28;21371;-60
2023/07/03 05:56:20;;;;;;;6.90;5.37;;;16.40;99.90;;;;;;4982339;28;20476;-60
2023/07/03 05:58:48;;;;;;;7.57;5.80;;;16.30;99.90;;;;;;4988765;28;20575;-58
2023/07/03 06:01:16;;;;;;;8.70;5.57;;;16.30;99.90;;;;;;4984442;28;20464;-60
2023/07/03 06:03:44;;;;;;;9.67;6.13;;;16.30;99.90;;;;;;4984090;28;20496;-60
2023/07/03 06:06:13;;;;;;;14.10;5.97;;;16.40;99.90;;;;;;4985443;28;20514;-61
2023/07/03 06:08:42;;;;;;;13.53;6.23;;;16.40;99.90;;;;;;4985587;28;20480;-59
2023/07/03 06:11:10;;;;;;;10.60;5.70;;;16.50;99.90;;;;;;4985748;28;20561;-59
2023/07/03 06:13:39;;;;;;;11.37;5.63;;;16.60;99.90;;;;;;4991419;28;21307;-58
2023/07/03 06:16:07;;;;;;;8.40;5.97;;;16.60;99.90;;;;;;4990287;28;20567;-58
2023/07/03 06:18:35;;;;;;;9.73;5.23;;;16.60;99.90;;;;;;4992598;28;20504;-59
2023/07/03 06:21:03;;;;;;;9.10;5.27;;;16.70;99.90;;;;;;4990978;28;20468;-60
2023/07/03 06:23:31;;;;;;;7.90;4.70;;;16.70;99.90;;;;;;4993191;28;21123;-60
2023/07/03 06:25:59;;;;;;;7.67;5.50;;;16.80;99.90;;;;;;4988089;28;20479;-60
2023/07/03 06:28:27;;;;;;;12.23;5.10;;;16.90;99.90;;;;;;4994142;28;20555;-59
2023/07/03 06:30:56;;;;;;;9.30;5.07;;;16.90;99.90;;;;;;4988649;28;20560;-61
2023/07/03 06:33:24;;;;;;;8.27;4.77;;;17.00;99.90;;;;;;4984058;28;20522;-61
2023/07/03 06:35:52;;;;;;;8.60;4.23;;;17.00;99.90;;;;;;4983028;28;20474;-58
2023/07/03 06:38:21;;;;;;;8.97;4.37;;;17.00;99.90;;;;;;4998145;28;20857;-60
2023/07/03 06:40:57;;;;;;;8.77;4.73;;;17.10;99.90;;;;;;4992921;28;20498;-60
2023/07/03 06:43:25;;;;;;;5.93;4.53;;;17.10;99.90;;;;;;4995181;28;20579;-59
2023/07/03 06:45:53;;;;;;;8.20;5.10;;;17.10;99.90;;;;;;4992181;28;20475;-61
2023/07/03 06:48:26;;;;;;;8.10;4.80;;;17.10;99.90;;;;;;4996395;28;20484;-59
2023/07/03 06:51:02;;;;;;;10.57;4.90;;;17.20;99.90;;;;;;4993022;28;20526;-60
2023/07/03 06:53:30;;;;;;;9.47;4.53;;;17.20;99.90;;;;;;4989125;28;20516;-58
2023/07/03 06:55:59;;;;;;;14.00;5.20;;;17.30;99.90;;;;;;4992692;28;20473;-58
2023/07/03 06:58:28;;;;;;;7.50;4.90;;;17.30;99.90;;;;;;4985653;28;20473;-58
2023/07/03 07:00:57;;;;;;;8.03;4.20;;;17.40;99.90;;;;;;4984683;28;20484;-58
2023/07/03 07:03:26;;;;;;;8.37;4.67;;;17.30;99.90;;;;;;4987625;28;20503;-59
2023/07/03 07:05:55;;;;;;;7.70;4.60;;;17.30;99.90;;;;;;4987234;28;20469;-60
2023/07/03 07:08:24;;;;;;;7.10;4.20;;;17.30;99.90;;;;;;4987045;28;20563;-58
2023/07/03 07:10:52;;;;;;;8.60;4.80;;;17.30;99.90;;;;;;4987412;28;20464;-58
2023/07/03 07:13:21;;;;;;;8.30;4.47;;;17.30;99.90;;;;;;4985941;28;20554;-60
2023/07/03 07:15:49;;;;;;;10.17;4.70;;;17.20;99.90;;;;;;4994071;28;21062;-58
2023/07/03 07:18:18;;;;;;;6.37;4.70;;;17.20;99.90;;;;;;4992578;28;20969;-58
2023/07/03 07:20:47;;;;;;;9.60;5.63;;;17.20;99.90;;;;;;4990855;28;20520;-58
2023/07/03 07:23:15;;;;;;;9.03;5.10;;;17.30;99.90;;;;;;4981245;28;20528;-60
2023/07/03 07:25:43;;;;;;;9.47;5.00;;;17.30;99.90;;;;;;4993847;28;20560;-60
2023/07/03 07:28:11;;;;;;;9.40;4.70;;;17.40;99.90;;;;;;4983552;28;20473;-58
2023/07/03 07:30:39;;;;;;;9.67;4.50;;;17.50;99.90;;;;;;4988018;28;20472;-57
2023/07/03 07:33:10;;;;;;;9.40;4.70;;;17.60;99.90;;;;;;4988940;28;20503;-58
2023/07/03 07:35:38;;;;;;;7.00;4.17;;;17.50;99.90;;;;;;4987223;28;20567;-60
2023/07/03 07:38:07;;;;;;;8.63;4.47;;;17.50;99.90;;;;;;4991911;28;20475;-57
2023/07/03 07:40:35;;;;;;;7.50;4.50;;;17.50;99.90;;;;;;4987461;28;21372;-60
2023/07/03 07:43:03;;;;;;;11.47;4.80;;;17.50;99.90;;;;;;4986001;28;21123;-59
2023/07/03 07:45:32;;;;;;;8.47;4.50;;;17.40;99.90;;;;;;4987769;28;20479;-60
2023/07/03 07:48:02;;;;;;;9.50;5.10;;;17.40;99.90;;;;;;4989529;28;20480;-57
2023/07/03 07:50:34;;;;;;;6.87;4.13;;;17.20;99.90;;;;;;4994716;28;20469;-60
2023/07/03 07:53:02;;;;;;;7.63;3.90;;;17.20;99.90;;;;;;4992264;28;20491;-57
2023/07/03 07:55:31;;;;;;;10.70;4.73;;;17.20;99.90;;;;;;4985175;28;20561;-60
2023/07/03 07:58:02;;;;;;;7.90;4.30;;;17.20;99.90;;;;;;4990935;28;20546;-58
2023/07/03 08:00:30;;;;;;;8.10;4.20;;;17.30;99.90;;;;;;4996627;28;20520;-58
2023/07/03 08:02:58;;;;;;;6.43;4.17;;;17.50;99.90;;;;;;4995548;28;20500;-59
2023/07/03 08:05:26;;;;;;;5.80;4.20;;;17.60;99.90;;;;;;4989501;28;20990;-57
2023/07/03 08:07:54;;;;;;;7.73;4.40;;;17.70;99.90;;;;;;4998504;28;20484;-59
2023/07/03 08:10:22;;;;;;;8.13;4.53;;;17.70;99.90;;;;;;4992642;28;20665;-60
2023/07/03 08:12:52;;;;;;;8.40;4.20;;;17.80;99.90;;;;;;4993247;28;20801;-57
2023/07/03 08:15:21;;;;;;;6.73;3.70;;;17.90;99.90;;;;;;4994865;28;20507;-60
2023/07/03 08:17:49;;;;;;;9.67;3.87;;;17.90;99.90;;;;;;4985125;28;21004;-58
2023/07/03 08:20:17;;;;;;;9.27;3.90;;;17.90;99.90;;;;;;4995127;28;21106;-57
2023/07/03 08:22:45;;;;;;;7.33;3.70;;;17.90;99.90;;;;;;4993314;28;20491;-58
2023/07/03 08:25:13;;;;;;;7.70;3.70;;;17.90;99.90;;;;;;4989674;28;20561;-58
2023/07/03 08:27:46;;;;;;;7.27;3.27;;;17.80;99.90;;;;;;4997274;28;20975;-58
2023/07/03 08:30:15;;;;;;;7.20;2.90;;;17.70;99.90;;;;;;4989525;28;20463;-60
2023/07/03 08:32:43;;;;;;;6.40;3.30;;;17.70;99.90;;;;;;4983625;28;21016;-58
2023/07/03 08:35:11;;;;;;;10.00;4.27;;;17.70;99.90;;;;;;4981263;28;20908;-59
2023/07/03 08:37:42;;;;;;;6.87;3.90;;;17.80;99.90;;;;;;4989524;28;20468;-59
2023/07/03 08:40:16;;;;;;;5.70;3.77;;;17.90;99.90;;;;;;4983116;28;21131;-58
2023/07/03 08:42:53;;;;;;;9.30;3.73;;;18.00;99.90;;;;;;4988916;28;20500;-58
2023/07/03 08:45:26;;;;;;;8.37;3.23;;;18.30;99.90;;;;;;4991627;28;20503;-58
2023/07/03 08:47:56;;;;;;;7.20;3.60;;;18.40;99.90;;;;;;4995983;28;20526;-60
2023/07/03 08:50:25;;;;;;;5.83;2.93;;;18.50;99.90;;;;;;4981246;28;20558;-60
2023/07/03 08:53:05;;;;;;;3.37;3.07;;;18.50;99.90;;;;;;4989585;28;21093;-59
2023/07/03 08:55:38;;;;;;;2.63;2.43;;;18.50;99.90;;;;;;4987139;28;20481;-61
2023/07/03 08:58:07;;;;;;;6.50;3.10;;;18.40;99.90;;;;;;4990080;28;20678;-58
2023/07/03 09:00:42;;;;;;;6.40;3.30;;;18.30;99.90;;;;;;4996335;28;20579;-60
2023/07/03 09:03:20;;;;;;;4.83;2.77;;;18.30;99.90;;;;;;4989051;28;20927;-58
2023/07/03 09:05:57;;;;;;;7.73;3.50;;;18.20;99.90;;;;;;4990522;28;21209;-58
2023/07/03 09:08:31;;;;;;;11.00;3.70;;;18.20;99.90;;;;;;4987740;28;20593;-58
2023/07/03 09:10:59;;;;;;;7.13;4.10;;;18.20;99.90;;;;;;4990200;28;20850;-58
2023/07/03 09:13:31;;;;;;;6.10;3.30;;;18.10;99.90;;;;;;4988161;28;21059;-58
2023/07/03 09:16:07;;;;;;;8.07;4.40;;;18.00;99.90;;;;;;4990654;28;20500;-59
2023/07/03 09:18:39;;;;;;;9.07;4.20;;;18.00;99.90;;;;;;4991919;28;20480;-59
2023/07/03 09:21:07;;;;;;;7.73;3.60;;;18.00;99.90;;;;;;4994893;28;20490;-60
2023/07/03 09:23:40;;;;;;;8.93;3.93;;;17.90;99.90;;;;;;4982073;28;20507;-58
2023/07/03 09:26:17;;;;;;;4.73;2.60;;;17.80;99.90;;;;;;4993100;28;20465;-60
2023/07/03 09:28:45;;;;;;;4.60;2.60;;;17.90;99.90;;;;;;4992172;28;20554;-57
2023/07/03 09:31:15;;;;;;;5.80;3.03;;;18.00;99.90;;;;;;4992942;28;20476;-61
2023/07/03 09:33:43;;;;;;;4.33;2.77;;;18.20;99.90;;;;;;4991195;28;20493;-57
2023/07/03 09:36:24;;;;;;;5.13;2.90;;;18.30;99.90;;;;;;4989971;28;20602;-60
2023/07/03 09:38:52;;;;;;;4.47;2.33;;;18.40;99.90;;;;;;4992858;28;20911;-58
2023/07/03 09:41:34;;;;;;;5.47;2.40;;;18.50;99.90;;;;;;4985301;28;21579;-58
2023/07/03 09:44:07;;;;;;;4.40;2.50;;;18.50;99.90;;;;;;4989060;28;20579;-58
2023/07/03 09:46:38;;;;;;;5.67;2.60;;;18.40;99.90;;;;;;4993678;28;20476;-59
2023/07/03 09:49:14;;;;;;;4.13;2.10;;;18.40;99.90;;;;;;4993355;28;20473;-59
2023/07/03 09:51:43;;;;;;;4.30;2.40;;;18.50;99.90;;;;;;4983548;28;20495;-60
2023/07/03 09:54:20;;;;;;;5.20;2.60;;;18.60;99.90;;;;;;4991333;28;21344;-56
2023/07/03 09:56:49;;;;;;;5.00;2.80;;;18.50;99.90;;;;;;4989284;28;20526;-60
2023/07/03 09:59:19;;;;;;;4.00;2.23;;;18.50;99.90;;;;;;4994678;28;20468;-58
2023/07/03 10:01:55;;;;;;;5.20;2.90;;;18.50;99.90;;;;;;4988407;28;20584;-58
2023/07/03 10:04:32;;;;;;;6.17;3.17;;;18.50;99.90;;;;;;4987895;28;20476;-57
2023/07/03 10:07:07;;;;;;;5.20;2.90;;;18.60;99.90;;;;;;4979767;28;20471;-60
2023/07/03 10:09:37;;;;;;;3.77;2.50;;;18.60;99.90;;;;;;4993306;28;20917;-58
2023/07/03 10:12:16;;;;;;;4.27;2.77;;;18.60;99.90;;;;;;4998113;28;20563;-60
2023/07/03 10:14:51;;;;;;;7.77;2.87;;;18.50;99.90;;;;;;4985412;28;20484;-60
2023/07/03 10:17:27;;;;;;;3.57;2.50;;;18.70;99.90;;;;;;4997291;28;20506;-58
2023/07/03 10:20:00;;;;;;;5.40;2.30;;;18.80;99.90;;;;;;4987396;28;20472;-60
2023/07/03 10:22:30;;;;;;;5.40;2.57;;;18.90;99.90;;;;;;4983565;28;20622;-60
2023/07/03 10:25:04;;;;;;;4.50;2.50;;;18.90;99.90;;;;;;4979953;28;20622;-58
2023/07/03 10:27:33;;;;;;;6.80;2.80;;;18.90;99.90;;;;;;4987235;28;20555;-58
2023/07/03 10:30:05;;;;;;;3.00;2.40;;;18.80;99.90;;;;;;4992585;28;20472;-59
2023/07/03 10:32:37;;;;;;;4.03;2.60;;;18.80;99.90;;;;;;4994429;28;20873;-59
2023/07/03 10:35:11;;;;;;;3.50;2.10;;;18.60;99.90;;;;;;4994540;28;20476;-58
2023/07/03 10:37:46;;;;;;;5.20;1.80;;;18.50;99.90;;;;;;4984456;28;20850;-58
2023/07/03 10:40:19;;;;;;;5.27;1.77;;;18.30;99.90;;;;;;4988591;28;20471;-58
2023/07/03 10:42:53;;;;;;;5.67;2.10;;;18.00;99.90;;;;;;4987607;28;20881;-59
2023/07/03 10:45:22;;;;;;;5.87;2.40;;;17.30;99.90;;;;;;4983657;28;20503;-58
2023/07/03 10:47:56;;;;;;;4.70;1.60;;;16.80;99.90;;;;;;4993986;28;20556;-57
2023/07/03 10:50:31;;;;;;;2.07;1.53;;;16.50;99.90;;;;;;4993966;28;20537;-59
2023/07/03 10:53:08;;;;;;;3.10;1.80;;;16.30;99.90;;;;;;4995331;28;20524;-60
2023/07/03 10:55:43;;;;;;;2.60;2.30;;;16.30;99.90;;;;;;4988661;28;20480;-59
2023/07/03 10:58:19;;;;;;;3.20;2.47;;;16.20;99.90;;;;;;4991041;28;20554;-59
2023/07/03 11:00:54;;;;;;;3.10;2.57;;;16.10;99.90;;;;;;4995496;28;20547;-60
2023/07/03 11:03:33;;;;;;;2.53;1.90;;;16.20;99.90;;;;;;4976182;28;20520;-57
2023/07/03 11:06:05;;;;;;;2.57;1.70;;;16.20;99.90;;;;;;4988422;28;20528;-59
2023/07/03 11:08:42;;;;;;;1.67;1.57;;;16.10;99.90;;;;;;4991540;28;20535;-59
2023/07/03 11:11:23;;;;;;;1.80;1.67;;;16.10;99.90;;;;;;4987644;28;20567;-60
2023/07/03 11:13:58;;;;;;;2.60;1.87;;;16.00;99.90;;;;;;4993920;28;20606;-57
2023/07/03 11:16:31;;;;;;;3.33;2.20;;;15.90;99.90;;;;;;4987249;28;20476;-59
2023/07/03 11:19:16;;;;;;;3.07;1.90;;;16.00;99.90;;;;;;4990827;28;21947;-59
2023/07/03 11:21:58;;;;;;;1.80;1.70;;;16.20;99.90;;;;;;4987100;28;21171;-58
2023/07/03 11:24:40;;;;;;;2.17;1.97;;;16.40;99.90;;;;;;4992581;28;20472;-57
2023/07/03 11:27:14;;;;;;;1.87;1.70;;;16.70;99.90;;;;;;4989035;28;20959;-58
2023/07/03 11:29:45;;;;;;;3.03;1.80;;;16.90;99.90;;;;;;4994249;28;20551;-57
2023/07/03 11:32:15;;;;;;;1.90;1.70;;;17.00;99.90;;;;;;4991062;28;20526;-58
2023/07/03 11:34:45;;;;;;;2.70;2.30;;;17.20;99.90;;;;;;4994142;28;20476;-59
2023/07/03 11:37:44;;;;;;;3.70;2.23;;;17.50;99.90;;;;;;4990146;28;20473;-58
2023/07/03 11:40:26;;;;;;;2.20;1.87;;;17.70;99.90;;;;;;4988799;28;20469;-60
2023/07/03 11:43:19;;;;;;;2.43;2.20;;;17.80;99.90;;;;;;4986056;28;21275;-59
2023/07/03 11:46:02;;;;;;;2.33;1.83;;;17.90;99.90;;;;;;4988645;28;20571;-58
2023/07/03 11:48:32;;;;;;;5.87;2.37;;;18.00;99.90;;;;;;4989419;28;20965;-59
2023/07/03 11:51:03;;;;;;;7.63;2.40;;;18.00;99.90;;;;;;4987517;28;21004;-59
2023/07/03 11:53:35;;;;;;;3.83;2.33;;;18.00;99.90;;;;;;4990340;28;20500;-58
2023/07/03 11:56:04;;;;;;;3.83;2.43;;;18.00;99.90;;;;;;4990906;28;20549;-59
2023/07/03 11:58:34;;;;;;;4.33;2.50;;;18.00;99.90;;;;;;4995861;28;20503;-58
2023/07/03 12:01:26;;;;;;;3.67;2.53;;;18.00;99.90;;;;;;4993717;28;21063;-58
2023/07/03 12:03:55;;;;;;;3.10;2.27;;;17.90;99.90;;;;;;4993734;28;20574;-61
2023/07/03 12:06:50;;;;;;;5.90;2.13;;;17.90;99.90;;;;;;4989862;28;20518;-59
2023/07/03 12:09:23;;;;;;;2.50;1.73;;;17.70;99.90;;;;;;4981771;28;20997;-59
2023/07/03 12:12:14;;;;;;;2.03;1.60;;;17.60;99.90;;;;;;4995958;28;21050;-60
2023/07/03 12:15:00;;;;;;;2.20;1.70;;;17.60;99.90;;;;;;4992918;28;20608;-60
2023/07/03 12:17:30;;;;;;;3.20;1.87;;;17.50;99.90;;;;;;4993974;28;20475;-60
2023/07/03 12:20:06;;;;;;;2.53;1.97;;;17.40;99.90;;;;;;4990242;28;20563;-60
2023/07/03 12:22:44;;;;;;;1.90;1.80;;;17.30;99.90;;;;;;4991831;28;21026;-61
2023/07/03 12:25:18;;;;;;;2.10;1.80;;;17.30;99.90;;;;;;4995060;28;20480;-59
2023/07/03 12:27:47;;;;;;;4.13;1.60;;;17.40;99.90;;;;;;4989157;28;20565;-60
2023/07/03 12:30:25;;;;;;;4.07;1.87;;;17.50;99.90;;;;;;4988465;28;20484;-60
2023/07/03 12:32:54;;;;;;;2.70;1.40;;;17.60;99.90;;;;;;4981026;28;20484;-59
2023/07/03 12:35:25;;;;;;;1.97;1.40;;;17.70;99.90;;;;;;4997542;28;20469;-59
2023/07/03 12:37:57;;;;;;;2.60;1.30;;;17.90;99.90;;;;;;4984272;28;20487;-60
2023/07/03 12:40:26;;;;;;;2.47;1.33;;;18.20;99.90;;;;;;4968145;28;21005;-59
2023/07/03 12:42:56;;;;;;;2.47;1.40;;;18.40;99.90;;;;;;4971990;28;20523;-59
2023/07/03 12:45:27;;;;;;;1.93;1.50;;;18.50;99.90;;;;;;4982252;28;21167;-59
2023/07/03 12:48:02;;;;;;;1.63;1.43;;;18.40;99.90;;;;;;4981999;28;20847;-59
2023/07/03 12:50:31;;;;;;;1.90;1.13;;;18.30;99.90;;;;;;4977705;28;20472;-60
2023/07/03 12:53:02;;;;;;;3.07;1.53;;;18.20;99.90;;;;;;4979049;28;20833;-60
2023/07/03 12:55:33;;;;;;;2.10;1.30;;;18.10;99.90;;;;;;4985171;28;20479;-61
2023/07/03 12:58:01;;;;;;;2.40;1.47;;;18.10;99.90;;;;;;4977153;28;20476;-60
2023/07/03 13:00:33;;;;;;;1.60;1.30;;;17.90;99.90;;;;;;4983358;28;20922;-58
2023/07/03 13:03:02;;;;;;;4.30;1.53;;;17.70;99.90;;;;;;4986678;28;20610;-60